createdAt,value
2023-03-07T00:01:31.184Z,13.50
2023-03-07T00:06:32.830Z,13.68
2023-03-07T00:11:34.472Z,14.20
2023-03-07T00:16:36.145Z,13.55
2023-03-07T00:21:37.875Z,13.57
2023-03-07T00:26:39.853Z,13.95
2023-03-07T00:31:41.476Z,15.20
2023-03-07T00:36:43.185Z,14.70
2023-03-07T00:41:44.844Z,16.05
2023-03-07T00:46:46.568Z,15.38
2023-03-07T00:51:48.452Z,15.32
2023-03-07T00:56:50.851Z,13.77
2023-03-07T01:01:52.613Z,15.07
2023-03-07T01:06:54.257Z,15.52
2023-03-07T01:11:55.950Z,15.98
2023-03-07T01:16:57.932Z,15.38
2023-03-07T01:21:59.800Z,15.43
2023-03-07T01:27:01.922Z,14.80
2023-03-07T01:32:03.817Z,15.60
2023-03-07T01:37:05.713Z,16.38
2023-03-07T01:42:07.734Z,16.23
2023-03-07T01:47:09.600Z,15.20
2023-03-07T01:52:31.482Z,15.45
2023-03-07T01:57:38.372Z,16.00
2023-03-07T02:02:46.022Z,15.32
2023-03-07T02:07:54.019Z,15.95
2023-03-07T02:13:00.332Z,13.67
2023-03-07T02:18:04.374Z,14.63
2023-03-07T02:23:13.564Z,15.85
2023-03-07T02:28:17.353Z,14.52
2023-03-07T02:33:19.174Z,14.93
2023-03-07T02:38:22.684Z,14.82
2023-03-07T02:43:24.973Z,16.00
2023-03-07T02:48:26.559Z,15.27
2023-03-07T02:53:28.463Z,16.10
2023-03-07T02:58:30.188Z,16.88
2023-03-07T03:03:31.935Z,15.77
2023-03-07T03:08:33.702Z,17.50
2023-03-07T03:13:37.169Z,15.90
2023-03-07T03:18:41.500Z,14.52
2023-03-07T03:23:43.331Z,15.68
2023-03-07T03:28:45.472Z,17.63
2023-03-07T03:33:49.337Z,15.45
2023-03-07T03:38:59.301Z,14.93
2023-03-07T03:44:01.422Z,15.57
2023-03-07T03:49:05.128Z,15.32
2023-03-07T03:54:07.964Z,14.20
2023-03-07T03:59:11.111Z,16.50
2023-03-07T04:04:12.835Z,13.82
2023-03-07T04:09:15.207Z,15.70
2023-03-07T04:14:21.039Z,15.75
2023-03-07T04:19:23.033Z,15.80
2023-03-07T04:24:25.845Z,15.00
2023-03-07T04:29:27.610Z,15.32
2023-03-07T04:34:36.475Z,14.90
2023-03-07T04:39:38.612Z,15.88
2023-03-07T04:44:42.652Z,15.43
2023-03-07T04:49:44.429Z,15.15
2023-03-07T04:54:46.327Z,16.17
2023-03-07T04:59:47.992Z,14.07
2023-03-07T05:04:50.324Z,14.95
2023-03-07T05:09:52.109Z,15.35
2023-03-07T05:14:53.869Z,15.77
2023-03-07T05:19:56.133Z,14.57
2023-03-07T05:24:58.644Z,15.98
2023-03-07T05:30:01.092Z,15.68
2023-03-07T05:35:04.206Z,15.70
2023-03-07T05:40:15.781Z,14.98
2023-03-07T05:45:21.238Z,15.02
2023-03-07T05:50:23.976Z,15.75
2023-03-07T05:55:25.789Z,16.17
2023-03-07T06:00:28.331Z,15.32
2023-03-07T06:05:34.456Z,16.77
2023-03-07T06:10:40.028Z,14.52
2023-03-07T06:15:44.237Z,15.32
2023-03-07T06:20:58.774Z,14.70
2023-03-07T06:26:03.181Z,15.07
2023-03-07T06:31:12.831Z,13.93
2023-03-07T06:36:17.268Z,15.35
2023-03-07T06:41:22.371Z,15.02
2023-03-07T06:46:25.669Z,14.13
2023-03-07T06:51:28.620Z,15.70
2023-03-07T06:56:34.328Z,13.60
2023-03-07T07:01:37.421Z,14.07
2023-03-07T07:06:39.155Z,12.18
2023-03-07T07:11:40.928Z,14.25
2023-03-07T07:16:46.253Z,14.00
2023-03-07T07:21:48.060Z,13.57
2023-03-07T07:26:49.718Z,13.70
2023-03-07T07:31:51.531Z,13.38
2023-03-07T07:36:54.681Z,11.20
2023-03-07T07:41:56.492Z,11.20
2023-03-07T07:47:01.584Z,12.80
2023-03-07T07:52:03.464Z,12.00
2023-03-07T07:57:05.369Z,13.45
2023-03-07T08:02:07.405Z,12.50
2023-03-07T08:07:09.124Z,12.90
2023-03-07T08:12:12.547Z,13.85
2023-03-07T08:17:14.464Z,14.25
2023-03-07T08:22:16.971Z,14.63
2023-03-07T08:27:18.611Z,13.80
2023-03-07T08:32:20.257Z,13.95
2023-03-07T08:37:21.924Z,15.40
2023-03-07T08:42:23.578Z,14.95
2023-03-07T08:47:25.390Z,13.90
2023-03-07T08:52:27.075Z,14.85
2023-03-07T08:57:28.719Z,14.32
2023-03-07T09:02:30.347Z,14.73
2023-03-07T09:07:32.157Z,14.40
2023-03-07T09:12:34.563Z,15.68
2023-03-07T09:17:36.500Z,13.80
2023-03-07T09:22:38.445Z,14.57
2023-03-07T09:27:40.118Z,16.90
2023-03-07T09:32:42.690Z,15.65
2023-03-07T09:37:44.326Z,14.27
2023-03-07T09:42:55.899Z,14.95
2023-03-07T09:48:35.320Z,15.05
2023-03-07T09:53:39.076Z,10.37
2023-03-07T09:58:45.214Z,14.43
2023-03-07T10:03:54.646Z,13.95
2023-03-07T10:08:59.816Z,14.07
2023-03-07T10:14:09.085Z,13.68
2023-03-07T10:19:35.955Z,13.07
2023-03-07T10:25:11.711Z,13.57
2023-03-07T10:30:18.015Z,12.50
2023-03-07T10:35:22.197Z,13.60
2023-03-07T10:40:28.724Z,12.77
2023-03-07T10:45:32.868Z,10.88
2023-03-07T10:50:55.454Z,10.07
2023-03-07T10:56:11.542Z,10.75
2023-03-07T11:01:17.690Z,10.07
2023-03-07T11:06:50.990Z,10.48
2023-03-07T11:12:05.780Z,10.00
2023-03-07T11:17:19.976Z,10.25
2023-03-07T11:22:23.937Z,10.80
2023-03-07T11:27:33.698Z,12.05
2023-03-07T11:32:40.131Z,11.40
2023-03-07T11:37:52.597Z,11.30
2023-03-07T11:43:21.997Z,10.63
2023-03-07T11:48:52.337Z,9.60
2023-03-07T11:54:00.106Z,7.13
2023-03-07T11:59:42.127Z,5.90
2023-03-07T12:05:04.149Z,5.38
2023-03-07T12:10:29.217Z,4.93
2023-03-07T12:16:08.003Z,5.07
2023-03-07T12:21:46.866Z,5.07
2023-03-07T12:27:07.174Z,6.05
2023-03-07T12:32:14.464Z,6.63
2023-03-07T12:37:25.447Z,7.60
2023-03-07T12:42:38.468Z,16.10
2023-03-07T12:47:59.794Z,7.90
2023-03-07T12:53:07.507Z,10.98
2023-03-07T12:58:24.369Z,9.02
2023-03-07T13:03:55.585Z,14.20
2023-03-07T13:09:04.112Z,9.02
2023-03-07T13:14:06.009Z,10.15
2023-03-07T13:19:35.684Z,9.15
2023-03-07T13:30:03.798Z,11.85
2023-03-07T13:35:09.761Z,10.40
2023-03-07T13:40:39.632Z,10.90
2023-03-07T13:45:41.245Z,5.00
2023-03-07T13:50:42.976Z,10.48
2023-03-07T13:55:47.571Z,13.93
2023-03-07T14:01:02.896Z,7.78
2023-03-07T14:06:17.206Z,5.88
2023-03-07T14:11:30.655Z,4.60
2023-03-07T14:16:35.226Z,6.07
2023-03-07T14:22:00.914Z,8.02
2023-03-07T14:27:12.792Z,5.80
2023-03-07T14:32:24.471Z,5.80
2023-03-07T14:37:30.884Z,5.35
2023-03-07T14:42:55.027Z,6.32
2023-03-07T14:48:08.931Z,6.80
2023-03-07T14:53:19.634Z,7.70
2023-03-07T14:58:24.010Z,6.57
2023-03-07T15:03:26.150Z,6.60
2023-03-07T15:08:38.487Z,6.70
2023-03-07T15:13:58.548Z,7.10
2023-03-07T15:19:24.370Z,7.40
2023-03-07T15:24:31.234Z,7.22
2023-03-07T15:29:33.598Z,7.30
2023-03-07T15:34:37.648Z,7.38
2023-03-07T15:39:39.308Z,8.25
2023-03-07T15:44:40.916Z,8.85
2023-03-07T15:49:58.803Z,9.55
2023-03-07T15:55:05.417Z,9.77
2023-03-07T16:00:20.441Z,9.95
2023-03-07T16:05:23.012Z,10.88
2023-03-07T16:10:28.401Z,11.52
2023-03-07T16:15:30.239Z,11.82
2023-03-07T16:20:31.804Z,14.02
2023-03-07T16:25:34.045Z,14.45
2023-03-07T16:30:35.713Z,14.23
2023-03-07T16:35:37.368Z,13.70
2023-03-07T16:40:44.590Z,15.15
2023-03-07T16:45:46.296Z,15.60
2023-03-07T16:50:47.952Z,15.15
2023-03-07T16:55:50.922Z,16.35
2023-03-07T17:00:53.733Z,14.40
2023-03-07T17:05:55.460Z,15.45
2023-03-07T17:10:57.513Z,16.42
2023-03-07T17:15:59.159Z,16.88
2023-03-07T17:21:00.859Z,16.45
2023-03-07T17:26:02.547Z,26.90
2023-03-07T17:31:04.316Z,16.90
2023-03-07T17:36:06.424Z,17.17
2023-03-07T17:41:08.142Z,16.35
2023-03-07T17:46:11.537Z,17.05
2023-03-07T17:51:13.494Z,17.02
2023-03-07T17:56:15.153Z,17.33
2023-03-07T18:01:16.841Z,18.25
2023-03-07T18:06:18.549Z,16.88
2023-03-07T18:11:20.389Z,17.52
2023-03-07T18:16:22.212Z,17.27
2023-03-07T18:21:23.961Z,16.55
2023-03-07T18:26:25.797Z,16.33
2023-03-07T18:31:30.324Z,18.88
2023-03-07T18:36:31.977Z,15.60
2023-03-07T18:41:33.596Z,16.23
2023-03-07T18:46:37.181Z,17.02
2023-03-07T18:51:39.507Z,15.82
2023-03-07T18:56:42.598Z,17.40
2023-03-07T19:01:45.000Z,15.88
2023-03-07T19:06:47.642Z,17.13
2023-03-07T19:11:49.278Z,16.45
2023-03-07T19:16:50.997Z,15.95
2023-03-07T19:21:52.914Z,16.40
2023-03-07T19:26:54.493Z,18.98
2023-03-07T19:31:56.094Z,18.85
2023-03-07T19:36:57.801Z,20.20
2023-03-07T19:41:59.663Z,21.05
2023-03-07T19:47:01.320Z,18.48
2023-03-07T19:52:03.022Z,17.20
2023-03-07T19:57:04.689Z,16.63
2023-03-07T20:02:06.957Z,18.70
2023-03-07T20:07:08.678Z,16.40
2023-03-07T20:12:10.461Z,17.13
2023-03-07T20:17:12.407Z,16.02
2023-03-07T20:22:14.163Z,24.88
2023-03-07T20:27:20.393Z,20.23
2023-03-07T20:32:23.185Z,19.70
2023-03-07T20:37:24.857Z,18.88
2023-03-07T20:42:27.134Z,17.13
2023-03-07T20:47:28.821Z,16.70
2023-03-07T20:52:30.491Z,18.35
2023-03-07T20:57:32.084Z,15.55
2023-03-07T21:02:33.669Z,15.90
2023-03-07T21:07:35.251Z,16.58
2023-03-07T21:12:36.915Z,17.30
2023-03-07T21:17:38.625Z,19.17
2023-03-07T21:22:40.662Z,18.00
2023-03-07T21:27:42.257Z,17.92
2023-03-07T21:32:43.845Z,16.55
2023-03-07T21:37:45.581Z,15.75
2023-03-07T21:42:47.633Z,17.45
2023-03-07T21:47:53.318Z,16.88
2023-03-07T21:52:55.152Z,16.88
2023-03-07T21:57:56.768Z,17.90
2023-03-07T22:02:59.103Z,17.35
2023-03-07T22:08:00.730Z,16.25
2023-03-07T22:13:02.371Z,18.17
2023-03-07T22:18:04.172Z,18.70
2023-03-07T22:23:05.817Z,17.48
2023-03-07T22:28:07.543Z,17.73
2023-03-07T22:33:09.165Z,19.27
2023-03-07T22:38:10.833Z,19.23
2023-03-07T22:43:12.406Z,16.33
2023-03-07T22:48:15.983Z,17.48
2023-03-07T22:53:17.695Z,17.73
2023-03-07T22:58:19.307Z,18.40
2023-03-07T23:03:21.083Z,19.67
2023-03-07T23:08:22.721Z,19.30
2023-03-07T23:13:24.342Z,17.83
2023-03-07T23:18:25.974Z,18.88
2023-03-07T23:23:27.576Z,21.48
2023-03-07T23:28:29.511Z,21.58
2023-03-07T23:33:31.187Z,23.48
2023-03-07T23:38:32.816Z,21.58
2023-03-07T23:43:34.762Z,20.08
2023-03-07T23:48:36.428Z,20.33
2023-03-07T23:53:38.070Z,22.05
2023-03-07T23:58:40.064Z,25.80
